sensor_id;sensor_type;location;lat;lon;timestamp;P1;durP1;ratioP1;P2;durP2;ratioP2
16262;SDS011;8239;48.594;8.598;2023-08-31T00:00:06;5.50;;;2.73;;
16262;SDS011;8239;48.594;8.598;2023-08-31T00:02:35;4.33;;;3.27;;
16262;SDS011;8239;48.594;8.598;2023-08-31T00:05:03;4.10;;;3.20;;
16262;SDS011;8239;48.594;8.598;2023-08-31T00:07:30;4.57;;;3.00;;
16262;SDS011;8239;48.594;8.598;2023-08-31T00:09:58;5.67;;;3.27;;
16262;SDS011;8239;48.594;8.598;2023-08-31T00:12:26;3.77;;;3.30;;
16262;SDS011;8239;48.594;8.598;2023-08-31T00:14:53;3.60;;;3.30;;
16262;SDS011;8239;48.594;8.598;2023-08-31T00:17:20;5.07;;;3.07;;
16262;SDS011;8239;48.594;8.598;2023-08-31T00:19:47;4.73;;;2.87;;
16262;SDS011;8239;48.594;8.598;2023-08-31T00:22:14;4.57;;;2.93;;
16262;SDS011;8239;48.594;8.598;2023-08-31T00:24:41;4.00;;;3.10;;
16262;SDS011;8239;48.594;8.598;2023-08-31T00:27:08;4.03;;;2.93;;
16262;SDS011;8239;48.594;8.598;2023-08-31T00:29:40;3.60;;;2.93;;
16262;SDS011;8239;48.594;8.598;2023-08-31T00:32:08;3.33;;;3.03;;
16262;SDS011;8239;48.594;8.598;2023-08-31T00:34:35;4.60;;;3.00;;
16262;SDS011;8239;48.594;8.598;2023-08-31T00:37:02;5.20;;;3.33;;
16262;SDS011;8239;48.594;8.598;2023-08-31T00:39:30;5.90;;;3.30;;
16262;SDS011;8239;48.594;8.598;2023-08-31T00:41:58;5.17;;;3.57;;
16262;SDS011;8239;48.594;8.598;2023-08-31T00:44:25;3.97;;;3.27;;
16262;SDS011;8239;48.594;8.598;2023-08-31T00:46:55;5.53;;;3.87;;
16262;SDS011;8239;48.594;8.598;2023-08-31T00:49:22;5.67;;;3.57;;
16262;SDS011;8239;48.594;8.598;2023-08-31T00:51:49;10.80;;;7.87;;
16262;SDS011;8239;48.594;8.598;2023-08-31T00:54:16;6.77;;;5.53;;
16262;SDS011;8239;48.594;8.598;2023-08-31T00:56:44;6.17;;;4.20;;
16262;SDS011;8239;48.594;8.598;2023-08-31T00:59:11;117.20;;;7.80;;
16262;SDS011;8239;48.594;8.598;2023-08-31T01:01:40;84.50;;;6.77;;
16262;SDS011;8239;48.594;8.598;2023-08-31T01:04:16;28.23;;;5.30;;
16262;SDS011;8239;48.594;8.598;2023-08-31T01:06:50;11.93;;;4.33;;
16262;SDS011;8239;48.594;8.598;2023-08-31T01:09:28;6.87;;;4.17;;
16262;SDS011;8239;48.594;8.598;2023-08-31T01:12:06;5.27;;;4.00;;
16262;SDS011;8239;48.594;8.598;2023-08-31T01:14:38;7.80;;;4.57;;
16262;SDS011;8239;48.594;8.598;2023-08-31T01:17:08;6.67;;;4.10;;
16262;SDS011;8239;48.594;8.598;2023-08-31T01:19:44;5.87;;;4.37;;
16262;SDS011;8239;48.594;8.598;2023-08-31T01:22:16;10.70;;;4.53;;
16262;SDS011;8239;48.594;8.598;2023-08-31T01:24:52;5.63;;;4.10;;
16262;SDS011;8239;48.594;8.598;2023-08-31T01:27:20;11.63;;;4.90;;
16262;SDS011;8239;48.594;8.598;2023-08-31T01:29:47;7.83;;;4.73;;
16262;SDS011;8239;48.594;8.598;2023-08-31T01:32:14;6.93;;;4.53;;
16262;SDS011;8239;48.594;8.598;2023-08-31T01:34:41;8.13;;;4.90;;
16262;SDS011;8239;48.594;8.598;2023-08-31T01:37:10;8.67;;;4.67;;
16262;SDS011;8239;48.594;8.598;2023-08-31T01:39:41;10.13;;;4.60;;
16262;SDS011;8239;48.594;8.598;2023-08-31T01:42:15;6.70;;;4.23;;
16262;SDS011;8239;48.594;8.598;2023-08-31T01:44:43;16.07;;;4.80;;
16262;SDS011;8239;48.594;8.598;2023-08-31T01:47:14;21.57;;;5.30;;
16262;SDS011;8239;48.594;8.598;2023-08-31T01:49:43;58.17;;;6.83;;
16262;SDS011;8239;48.594;8.598;2023-08-31T01:52:10;74.37;;;8.83;;
16262;SDS011;8239;48.594;8.598;2023-08-31T01:54:37;56.87;;;7.83;;
16262;SDS011;8239;48.594;8.598;2023-08-31T01:57:06;68.77;;;8.50;;
16262;SDS011;8239;48.594;8.598;2023-08-31T01:59:34;60.40;;;7.93;;
16262;SDS011;8239;48.594;8.598;2023-08-31T02:02:01;60.20;;;8.67;;
16262;SDS011;8239;48.594;8.598;2023-08-31T02:04:29;76.27;;;8.20;;
16262;SDS011;8239;48.594;8.598;2023-08-31T02:06:56;56.47;;;8.10;;
16262;SDS011;8239;48.594;8.598;2023-08-31T02:09:22;77.20;;;9.87;;
16262;SDS011;8239;48.594;8.598;2023-08-31T02:11:49;67.83;;;8.67;;
16262;SDS011;8239;48.594;8.598;2023-08-31T02:14:16;46.20;;;8.90;;
16262;SDS011;8239;48.594;8.598;2023-08-31T02:16:45;36.53;;;7.97;;
16262;SDS011;8239;48.594;8.598;2023-08-31T02:19:12;49.73;;;8.13;;
16262;SDS011;8239;48.594;8.598;2023-08-31T02:21:38;17.83;;;6.90;;
16262;SDS011;8239;48.594;8.598;2023-08-31T02:24:06;13.67;;;6.73;;
16262;SDS011;8239;48.594;8.598;2023-08-31T02:26:34;15.43;;;7.57;;
16262;SDS011;8239;48.594;8.598;2023-08-31T02:29:02;11.00;;;7.10;;
16262;SDS011;8239;48.594;8.598;2023-08-31T02:31:29;10.37;;;6.77;;
16262;SDS011;8239;48.594;8.598;2023-08-31T02:33:57;10.10;;;7.03;;
16262;SDS011;8239;48.594;8.598;2023-08-31T02:36:24;8.87;;;6.60;;
16262;SDS011;8239;48.594;8.598;2023-08-31T02:38:51;10.37;;;6.87;;
16262;SDS011;8239;48.594;8.598;2023-08-31T02:41:18;9.77;;;6.60;;
16262;SDS011;8239;48.594;8.598;2023-08-31T02:43:46;10.07;;;6.70;;
16262;SDS011;8239;48.594;8.598;2023-08-31T02:46:16;9.23;;;6.40;;
16262;SDS011;8239;48.594;8.598;2023-08-31T02:48:43;7.93;;;5.80;;
16262;SDS011;8239;48.594;8.598;2023-08-31T02:51:12;9.87;;;6.47;;
16262;SDS011;8239;48.594;8.598;2023-08-31T02:53:39;9.50;;;5.97;;
16262;SDS011;8239;48.594;8.598;2023-08-31T02:56:06;9.43;;;6.30;;
16262;SDS011;8239;48.594;8.598;2023-08-31T02:58:32;11.77;;;6.77;;
16262;SDS011;8239;48.594;8.598;2023-08-31T03:01:06;10.47;;;6.63;;
16262;SDS011;8239;48.594;8.598;2023-08-31T03:03:36;11.10;;;6.27;;
16262;SDS011;8239;48.594;8.598;2023-08-31T03:06:03;9.87;;;6.30;;
16262;SDS011;8239;48.594;8.598;2023-08-31T03:08:31;10.50;;;6.37;;
16262;SDS011;8239;48.594;8.598;2023-08-31T03:10:58;10.23;;;6.67;;
16262;SDS011;8239;48.594;8.598;2023-08-31T03:13:25;10.97;;;6.63;;
16262;SDS011;8239;48.594;8.598;2023-08-31T03:15:52;9.13;;;6.03;;
16262;SDS011;8239;48.594;8.598;2023-08-31T03:18:19;10.43;;;7.07;;
16262;SDS011;8239;48.594;8.598;2023-08-31T03:20:46;9.13;;;6.40;;
16262;SDS011;8239;48.594;8.598;2023-08-31T03:23:16;8.13;;;6.33;;
16262;SDS011;8239;48.594;8.598;2023-08-31T03:25:44;10.60;;;6.73;;
16262;SDS011;8239;48.594;8.598;2023-08-31T03:28:11;10.40;;;6.57;;
16262;SDS011;8239;48.594;8.598;2023-08-31T03:30:39;12.13;;;7.53;;
16262;SDS011;8239;48.594;8.598;2023-08-31T03:33:06;12.30;;;7.37;;
16262;SDS011;8239;48.594;8.598;2023-08-31T03:35:33;11.13;;;7.53;;
16262;SDS011;8239;48.594;8.598;2023-08-31T03:38:00;12.43;;;7.73;;
16262;SDS011;8239;48.594;8.598;2023-08-31T03:40:27;12.47;;;7.37;;
16262;SDS011;8239;48.594;8.598;2023-08-31T03:42:57;724.37;;;28.63;;
16262;SDS011;8239;48.594;8.598;2023-08-31T03:45:24;671.77;;;33.73;;
16262;SDS011;8239;48.594;8.598;2023-08-31T03:47:51;787.10;;;29.30;;
16262;SDS011;8239;48.594;8.598;2023-08-31T03:50:18;647.87;;;26.73;;
16262;SDS011;8239;48.594;8.598;2023-08-31T03:52:45;99.80;;;9.83;;
16262;SDS011;8239;48.594;8.598;2023-08-31T03:55:12;98.33;;;9.63;;
16262;SDS011;8239;48.594;8.598;2023-08-31T03:57:39;12.67;;;7.20;;
16262;SDS011;8239;48.594;8.598;2023-08-31T04:00:08;8.87;;;6.57;;
16262;SDS011;8239;48.594;8.598;2023-08-31T04:02:37;11.17;;;7.07;;
16262;SDS011;8239;48.594;8.598;2023-08-31T04:05:04;10.80;;;7.40;;
16262;SDS011;8239;48.594;8.598;2023-08-31T04:07:34;8.93;;;6.60;;
16262;SDS011;8239;48.594;8.598;2023-08-31T04:10:01;10.33;;;6.93;;
16262;SDS011;8239;48.594;8.598;2023-08-31T04:12:28;313.93;;;20.33;;
16262;SDS011;8239;48.594;8.598;2023-08-31T04:14:56;357.47;;;22.77;;
16262;SDS011;8239;48.594;8.598;2023-08-31T04:17:24;677.97;;;31.20;;
16262;SDS011;8239;48.594;8.598;2023-08-31T04:19:51;766.70;;;34.57;;
16262;SDS011;8239;48.594;8.598;2023-08-31T04:22:18;407.73;;;26.83;;
16262;SDS011;8239;48.594;8.598;2023-08-31T04:24:45;351.03;;;24.60;;
16262;SDS011;8239;48.594;8.598;2023-08-31T04:27:12;295.20;;;15.67;;
16262;SDS011;8239;48.594;8.598;2023-08-31T04:29:39;711.73;;;32.73;;
16262;SDS011;8239;48.594;8.598;2023-08-31T04:32:06;550.40;;;32.33;;
16262;SDS011;8239;48.594;8.598;2023-08-31T04:34:34;632.17;;;35.73;;
16262;SDS011;8239;48.594;8.598;2023-08-31T04:37:01;462.40;;;23.90;;
16262;SDS011;8239;48.594;8.598;2023-08-31T04:39:28;430.17;;;26.93;;
16262;SDS011;8239;48.594;8.598;2023-08-31T04:41:55;298.80;;;16.37;;
16262;SDS011;8239;48.594;8.598;2023-08-31T04:44:22;293.17;;;21.07;;
16262;SDS011;8239;48.594;8.598;2023-08-31T04:46:49;170.10;;;15.03;;
16262;SDS011;8239;48.594;8.598;2023-08-31T04:49:16;410.47;;;23.07;;
16262;SDS011;8239;48.594;8.598;2023-08-31T04:51:44;623.17;;;33.83;;
16262;SDS011;8239;48.594;8.598;2023-08-31T04:54:12;677.17;;;31.10;;
16262;SDS011;8239;48.594;8.598;2023-08-31T04:56:39;913.17;;;36.77;;
16262;SDS011;8239;48.594;8.598;2023-08-31T04:59:06;856.17;;;36.03;;
16262;SDS011;8239;48.594;8.598;2023-08-31T05:01:33;660.10;;;32.53;;
16262;SDS011;8239;48.594;8.598;2023-08-31T05:04:00;853.90;;;36.60;;
16262;SDS011;8239;48.594;8.598;2023-08-31T05:06:27;610.50;;;31.93;;
16262;SDS011;8239;48.594;8.598;2023-08-31T05:08:55;170.80;;;12.13;;
16262;SDS011;8239;48.594;8.598;2023-08-31T05:11:23;178.53;;;14.60;;
16262;SDS011;8239;48.594;8.598;2023-08-31T05:13:50;167.80;;;13.07;;
16262;SDS011;8239;48.594;8.598;2023-08-31T05:16:16;85.00;;;9.40;;
16262;SDS011;8239;48.594;8.598;2023-08-31T05:18:43;103.30;;;10.13;;
16262;SDS011;8239;48.594;8.598;2023-08-31T05:21:10;60.90;;;9.43;;
16262;SDS011;8239;48.594;8.598;2023-08-31T05:23:37;15.37;;;6.50;;
16262;SDS011;8239;48.594;8.598;2023-08-31T05:26:05;46.77;;;8.37;;
16262;SDS011;8239;48.594;8.598;2023-08-31T05:28:32;18.37;;;7.07;;
16262;SDS011;8239;48.594;8.598;2023-08-31T05:31:00;34.27;;;7.37;;
16262;SDS011;8239;48.594;8.598;2023-08-31T05:33:28;39.80;;;8.73;;
16262;SDS011;8239;48.594;8.598;2023-08-31T05:36:00;20.63;;;7.97;;
16262;SDS011;8239;48.594;8.598;2023-08-31T05:38:28;16.20;;;7.07;;
16262;SDS011;8239;48.594;8.598;2023-08-31T05:41:02;497.03;;;30.27;;
16262;SDS011;8239;48.594;8.598;2023-08-31T05:43:32;419.43;;;26.93;;
16262;SDS011;8239;48.594;8.598;2023-08-31T05:45:59;164.07;;;11.93;;
16262;SDS011;8239;48.594;8.598;2023-08-31T05:48:26;517.10;;;27.47;;
16262;SDS011;8239;48.594;8.598;2023-08-31T05:50:53;291.23;;;18.77;;
16262;SDS011;8239;48.594;8.598;2023-08-31T05:53:20;204.70;;;16.40;;
16262;SDS011;8239;48.594;8.598;2023-08-31T05:55:47;516.40;;;29.80;;
16262;SDS011;8239;48.594;8.598;2023-08-31T05:58:14;134.20;;;9.57;;
16262;SDS011;8239;48.594;8.598;2023-08-31T06:00:42;380.70;;;22.77;;
16262;SDS011;8239;48.594;8.598;2023-08-31T06:03:09;211.33;;;12.13;;
16262;SDS011;8239;48.594;8.598;2023-08-31T06:05:36;74.17;;;6.53;;
16262;SDS011;8239;48.594;8.598;2023-08-31T06:08:04;4.63;;;4.00;;
16262;SDS011;8239;48.594;8.598;2023-08-31T06:10:31;3.73;;;3.43;;
16262;SDS011;8239;48.594;8.598;2023-08-31T06:12:58;3.47;;;3.17;;
16262;SDS011;8239;48.594;8.598;2023-08-31T06:15:25;98.00;;;8.80;;
16262;SDS011;8239;48.594;8.598;2023-08-31T06:17:54;642.17;;;24.10;;
16262;SDS011;8239;48.594;8.598;2023-08-31T06:20:21;607.00;;;28.60;;
16262;SDS011;8239;48.594;8.598;2023-08-31T06:22:48;124.50;;;10.30;;
16262;SDS011;8239;48.594;8.598;2023-08-31T06:25:15;2.47;;;2.27;;
16262;SDS011;8239;48.594;8.598;2023-08-31T06:27:43;2.60;;;2.38;;
16262;SDS011;8239;48.594;8.598;2023-08-31T06:30:11;5.28;;;2.58;;
16262;SDS011;8239;48.594;8.598;2023-08-31T06:32:41;2.50;;;2.30;;
16262;SDS011;8239;48.594;8.598;2023-08-31T06:35:10;2.30;;;2.10;;
16262;SDS011;8239;48.594;8.598;2023-08-31T06:37:37;3.35;;;1.70;;
16262;SDS011;8239;48.594;8.598;2023-08-31T06:40:05;2.97;;;2.00;;
16262;SDS011;8239;48.594;8.598;2023-08-31T06:42:34;2.05;;;1.80;;
16262;SDS011;8239;48.594;8.598;2023-08-31T06:45:01;2.80;;;1.80;;
16262;SDS011;8239;48.594;8.598;2023-08-31T06:47:30;2.45;;;1.85;;
16262;SDS011;8239;48.594;8.598;2023-08-31T06:49:57;1.83;;;1.73;;
16262;SDS011;8239;48.594;8.598;2023-08-31T06:52:25;2.58;;;1.80;;
16262;SDS011;8239;48.594;8.598;2023-08-31T06:54:53;2.42;;;1.90;;
16262;SDS011;8239;48.594;8.598;2023-08-31T06:57:21;2.55;;;1.48;;
16262;SDS011;8239;48.594;8.598;2023-08-31T06:59:48;2.45;;;1.65;;
16262;SDS011;8239;48.594;8.598;2023-08-31T07:02:18;2.17;;;1.70;;
16262;SDS011;8239;48.594;8.598;2023-08-31T07:04:47;1.98;;;1.70;;
16262;SDS011;8239;48.594;8.598;2023-08-31T07:07:14;2.03;;;1.70;;
16262;SDS011;8239;48.594;8.598;2023-08-31T07:09:43;1.40;;;1.30;;
16262;SDS011;8239;48.594;8.598;2023-08-31T07:12:13;2.80;;;1.90;;
16262;SDS011;8239;48.594;8.598;2023-08-31T07:14:40;2.53;;;1.85;;
16262;SDS011;8239;48.594;8.598;2023-08-31T07:17:07;3.50;;;1.55;;
16262;SDS011;8239;48.594;8.598;2023-08-31T07:19:35;1.95;;;1.75;;
16262;SDS011;8239;48.594;8.598;2023-08-31T07:22:02;2.47;;;1.90;;
16262;SDS011;8239;48.594;8.598;2023-08-31T07:24:31;2.55;;;1.70;;
16262;SDS011;8239;48.594;8.598;2023-08-31T07:27:01;2.08;;;1.70;;
16262;SDS011;8239;48.594;8.598;2023-08-31T07:29:28;2.55;;;1.65;;
16262;SDS011;8239;48.594;8.598;2023-08-31T07:31:55;2.90;;;1.90;;
16262;SDS011;8239;48.594;8.598;2023-08-31T07:34:22;2.67;;;1.70;;
16262;SDS011;8239;48.594;8.598;2023-08-31T07:36:49;2.03;;;1.75;;
16262;SDS011;8239;48.594;8.598;2023-08-31T07:39:16;1.90;;;1.70;;
16262;SDS011;8239;48.594;8.598;2023-08-31T07:41:43;2.78;;;1.70;;
16262;SDS011;8239;48.594;8.598;2023-08-31T07:44:12;4.03;;;2.03;;
16262;SDS011;8239;48.594;8.598;2023-08-31T07:46:39;3.00;;;1.85;;
16262;SDS011;8239;48.594;8.598;2023-08-31T07:49:06;2.22;;;1.85;;
16262;SDS011;8239;48.594;8.598;2023-08-31T07:51:33;2.67;;;1.70;;
16262;SDS011;8239;48.594;8.598;2023-08-31T07:54:00;2.25;;;1.90;;
16262;SDS011;8239;48.594;8.598;2023-08-31T07:56:29;2.22;;;1.70;;
16262;SDS011;8239;48.594;8.598;2023-08-31T07:58:56;2.55;;;1.83;;
16262;SDS011;8239;48.594;8.598;2023-08-31T08:01:24;3.17;;;1.90;;
16262;SDS011;8239;48.594;8.598;2023-08-31T08:03:52;2.70;;;1.80;;
16262;SDS011;8239;48.594;8.598;2023-08-31T08:06:19;2.22;;;1.70;;
16262;SDS011;8239;48.594;8.598;2023-08-31T08:08:46;3.65;;;1.65;;
16262;SDS011;8239;48.594;8.598;2023-08-31T08:11:13;2.33;;;1.63;;
16262;SDS011;8239;48.594;8.598;2023-08-31T08:13:40;1.73;;;1.60;;
16262;SDS011;8239;48.594;8.598;2023-08-31T08:16:07;2.33;;;1.75;;
16262;SDS011;8239;48.594;8.598;2023-08-31T08:18:35;2.92;;;2.00;;
16262;SDS011;8239;48.594;8.598;2023-08-31T08:21:03;2.88;;;1.67;;
16262;SDS011;8239;48.594;8.598;2023-08-31T08:23:29;3.08;;;1.70;;
16262;SDS011;8239;48.594;8.598;2023-08-31T08:25:56;2.40;;;1.80;;
16262;SDS011;8239;48.594;8.598;2023-08-31T08:28:24;2.20;;;1.70;;
16262;SDS011;8239;48.594;8.598;2023-08-31T08:30:51;2.28;;;2.08;;
16262;SDS011;8239;48.594;8.598;2023-08-31T08:33:18;1.92;;;1.70;;
16262;SDS011;8239;48.594;8.598;2023-08-31T08:35:46;2.63;;;1.90;;
16262;SDS011;8239;48.594;8.598;2023-08-31T08:38:13;2.65;;;1.67;;
16262;SDS011;8239;48.594;8.598;2023-08-31T08:40:40;3.55;;;1.70;;
16262;SDS011;8239;48.594;8.598;2023-08-31T08:43:07;3.47;;;1.77;;
16262;SDS011;8239;48.594;8.598;2023-08-31T08:45:35;2.42;;;1.75;;
16262;SDS011;8239;48.594;8.598;2023-08-31T08:48:04;2.42;;;1.60;;
16262;SDS011;8239;48.594;8.598;2023-08-31T08:50:32;2.63;;;1.80;;
16262;SDS011;8239;48.594;8.598;2023-08-31T08:53:02;2.58;;;1.77;;
16262;SDS011;8239;48.594;8.598;2023-08-31T08:55:29;3.33;;;1.77;;
16262;SDS011;8239;48.594;8.598;2023-08-31T08:57:57;1.98;;;1.77;;
16262;SDS011;8239;48.594;8.598;2023-08-31T09:00:25;2.78;;;1.75;;
16262;SDS011;8239;48.594;8.598;2023-08-31T09:02:52;2.70;;;1.77;;
16262;SDS011;8239;48.594;8.598;2023-08-31T09:05:19;2.95;;;1.90;;
16262;SDS011;8239;48.594;8.598;2023-08-31T09:08:07;4.07;;;1.88;;
16262;SDS011;8239;48.594;8.598;2023-08-31T09:10:37;2.83;;;1.80;;
16262;SDS011;8239;48.594;8.598;2023-08-31T09:13:06;3.50;;;1.90;;
16262;SDS011;8239;48.594;8.598;2023-08-31T09:15:41;3.40;;;1.88;;
16262;SDS011;8239;48.594;8.598;2023-08-31T09:18:13;3.53;;;1.88;;
16262;SDS011;8239;48.594;8.598;2023-08-31T09:20:45;2.58;;;1.75;;
16262;SDS011;8239;48.594;8.598;2023-08-31T09:23:14;3.22;;;1.90;;
16262;SDS011;8239;48.594;8.598;2023-08-31T09:25:42;4.90;;;1.90;;
16262;SDS011;8239;48.594;8.598;2023-08-31T09:28:10;3.85;;;2.08;;
16262;SDS011;8239;48.594;8.598;2023-08-31T09:30:38;3.17;;;1.90;;
16262;SDS011;8239;48.594;8.598;2023-08-31T09:33:07;4.18;;;1.95;;
16262;SDS011;8239;48.594;8.598;2023-08-31T09:35:38;3.20;;;1.67;;
16262;SDS011;8239;48.594;8.598;2023-08-31T09:38:07;3.75;;;1.90;;
16262;SDS011;8239;48.594;8.598;2023-08-31T09:40:37;4.07;;;1.88;;
16262;SDS011;8239;48.594;8.598;2023-08-31T09:43:04;3.83;;;1.80;;
16262;SDS011;8239;48.594;8.598;2023-08-31T09:45:31;3.55;;;2.13;;
16262;SDS011;8239;48.594;8.598;2023-08-31T09:47:59;5.90;;;2.08;;
16262;SDS011;8239;48.594;8.598;2023-08-31T09:50:28;2.83;;;1.88;;
16262;SDS011;8239;48.594;8.598;2023-08-31T09:52:59;3.30;;;2.00;;
16262;SDS011;8239;48.594;8.598;2023-08-31T09:55:29;3.35;;;1.70;;
16262;SDS011;8239;48.594;8.598;2023-08-31T09:58:00;3.65;;;2.00;;
16262;SDS011;8239;48.594;8.598;2023-08-31T10:00:28;3.00;;;2.00;;
16262;SDS011;8239;48.594;8.598;2023-08-31T10:02:57;2.50;;;1.60;;
16262;SDS011;8239;48.594;8.598;2023-08-31T10:05:26;2.95;;;2.17;;
16262;SDS011;8239;48.594;8.598;2023-08-31T10:07:54;4.25;;;2.00;;
16262;SDS011;8239;48.594;8.598;2023-08-31T10:10:21;3.45;;;1.70;;
16262;SDS011;8239;48.594;8.598;2023-08-31T10:12:49;4.25;;;1.95;;
16262;SDS011;8239;48.594;8.598;2023-08-31T10:15:18;2.75;;;1.90;;
16262;SDS011;8239;48.594;8.598;2023-08-31T10:17:47;4.35;;;1.73;;
16262;SDS011;8239;48.594;8.598;2023-08-31T10:20:15;3.65;;;1.90;;
16262;SDS011;8239;48.594;8.598;2023-08-31T10:22:43;2.80;;;1.80;;
16262;SDS011;8239;48.594;8.598;2023-08-31T10:25:10;2.90;;;1.80;;
16262;SDS011;8239;48.594;8.598;2023-08-31T10:27:38;4.28;;;1.90;;
16262;SDS011;8239;48.594;8.598;2023-08-31T10:30:15;3.42;;;1.65;;
16262;SDS011;8239;48.594;8.598;2023-08-31T10:35:51;3.35;;;1.85;;
16262;SDS011;8239;48.594;8.598;2023-08-31T10:38:24;2.42;;;1.80;;
16262;SDS011;8239;48.594;8.598;2023-08-31T10:40:59;3.78;;;2.08;;
16262;SDS011;8239;48.594;8.598;2023-08-31T10:43:45;3.00;;;1.80;;
16262;SDS011;8239;48.594;8.598;2023-08-31T10:46:19;4.95;;;2.03;;
16262;SDS011;8239;48.594;8.598;2023-08-31T10:48:53;3.90;;;1.90;;
16262;SDS011;8239;48.594;8.598;2023-08-31T10:51:22;3.45;;;1.90;;
16262;SDS011;8239;48.594;8.598;2023-08-31T10:54:03;2.58;;;1.92;;
16262;SDS011;8239;48.594;8.598;2023-08-31T10:59:46;3.83;;;1.90;;
16262;SDS011;8239;48.594;8.598;2023-08-31T11:02:27;3.45;;;1.70;;
16262;SDS011;8239;48.594;8.598;2023-08-31T11:04:59;2.95;;;1.92;;
16262;SDS011;8239;48.594;8.598;2023-08-31T11:07:29;3.55;;;1.85;;
16262;SDS011;8239;48.594;8.598;2023-08-31T11:10:06;5.03;;;2.13;;
16262;SDS011;8239;48.594;8.598;2023-08-31T11:12:35;5.88;;;2.20;;
16262;SDS011;8239;48.594;8.598;2023-08-31T11:15:05;3.67;;;1.92;;
16262;SDS011;8239;48.594;8.598;2023-08-31T11:17:33;4.07;;;2.05;;
16262;SDS011;8239;48.594;8.598;2023-08-31T11:20:01;4.20;;;2.00;;
16262;SDS011;8239;48.594;8.598;2023-08-31T11:22:30;3.83;;;1.50;;
16262;SDS011;8239;48.594;8.598;2023-08-31T11:24:58;3.38;;;1.67;;
16262;SDS011;8239;48.594;8.598;2023-08-31T11:27:25;3.13;;;1.70;;
16262;SDS011;8239;48.594;8.598;2023-08-31T11:29:52;3.30;;;1.85;;
16262;SDS011;8239;48.594;8.598;2023-08-31T11:32:22;4.07;;;2.00;;
16262;SDS011;8239;48.594;8.598;2023-08-31T11:34:51;2.58;;;1.70;;
16262;SDS011;8239;48.594;8.598;2023-08-31T11:37:18;3.67;;;1.83;;
16262;SDS011;8239;48.594;8.598;2023-08-31T11:39:48;2.90;;;1.80;;
16262;SDS011;8239;48.594;8.598;2023-08-31T11:42:16;2.67;;;1.73;;
16262;SDS011;8239;48.594;8.598;2023-08-31T11:44:44;3.30;;;1.40;;
16262;SDS011;8239;48.594;8.598;2023-08-31T11:47:12;4.10;;;1.70;;
16262;SDS011;8239;48.594;8.598;2023-08-31T11:49:40;2.35;;;1.58;;
16262;SDS011;8239;48.594;8.598;2023-08-31T11:52:09;2.17;;;1.50;;
16262;SDS011;8239;48.594;8.598;2023-08-31T11:54:37;3.78;;;1.83;;
16262;SDS011;8239;48.594;8.598;2023-08-31T11:57:06;4.53;;;1.80;;
16262;SDS011;8239;48.594;8.598;2023-08-31T11:59:34;2.25;;;1.60;;
16262;SDS011;8239;48.594;8.598;2023-08-31T12:02:04;2.67;;;1.77;;
16262;SDS011;8239;48.594;8.598;2023-08-31T12:04:32;2.22;;;1.60;;
16262;SDS011;8239;48.594;8.598;2023-08-31T12:07:00;2.78;;;1.90;;
16262;SDS011;8239;48.594;8.598;2023-08-31T12:09:31;2.75;;;1.90;;
16262;SDS011;8239;48.594;8.598;2023-08-31T12:11:58;2.53;;;1.80;;
16262;SDS011;8239;48.594;8.598;2023-08-31T12:14:26;2.55;;;1.70;;
16262;SDS011;8239;48.594;8.598;2023-08-31T12:16:59;5.18;;;1.95;;
16262;SDS011;8239;48.594;8.598;2023-08-31T12:19:28;2.85;;;1.67;;
16262;SDS011;8239;48.594;8.598;2023-08-31T12:21:55;2.30;;;1.70;;
16262;SDS011;8239;48.594;8.598;2023-08-31T12:24:23;3.65;;;1.73;;
16262;SDS011;8239;48.594;8.598;2023-08-31T12:26:51;5.13;;;2.08;;
16262;SDS011;8239;48.594;8.598;2023-08-31T12:29:20;2.78;;;1.90;;
16262;SDS011;8239;48.594;8.598;2023-08-31T12:31:47;4.10;;;2.00;;
16262;SDS011;8239;48.594;8.598;2023-08-31T12:34:14;4.30;;;1.75;;
16262;SDS011;8239;48.594;8.598;2023-08-31T12:36:41;2.55;;;1.73;;
16262;SDS011;8239;48.594;8.598;2023-08-31T12:39:08;1.45;;;1.33;;
16262;SDS011;8239;48.594;8.598;2023-08-31T12:41:37;3.28;;;1.88;;
16262;SDS011;8239;48.594;8.598;2023-08-31T12:44:06;2.95;;;1.95;;
16262;SDS011;8239;48.594;8.598;2023-08-31T12:46:33;3.75;;;1.85;;
16262;SDS011;8239;48.594;8.598;2023-08-31T12:49:01;3.40;;;1.70;;
16262;SDS011;8239;48.594;8.598;2023-08-31T12:51:29;3.17;;;1.90;;
16262;SDS011;8239;48.594;8.598;2023-08-31T12:53:56;2.92;;;1.88;;
16262;SDS011;8239;48.594;8.598;2023-08-31T12:56:23;2.88;;;1.90;;
16262;SDS011;8239;48.594;8.598;2023-08-31T12:58:51;3.95;;;1.90;;
16262;SDS011;8239;48.594;8.598;2023-08-31T13:01:20;4.15;;;1.70;;
16262;SDS011;8239;48.594;8.598;2023-08-31T13:03:51;3.00;;;1.70;;
16262;SDS011;8239;48.594;8.598;2023-08-31T13:06:18;4.40;;;1.80;;
16262;SDS011;8239;48.594;8.598;2023-08-31T13:08:46;3.63;;;1.77;;
16262;SDS011;8239;48.594;8.598;2023-08-31T13:11:12;3.30;;;1.60;;
16262;SDS011;8239;48.594;8.598;2023-08-31T13:13:40;2.90;;;1.90;;
16262;SDS011;8239;48.594;8.598;2023-08-31T13:16:07;4.18;;;1.77;;
16262;SDS011;8239;48.594;8.598;2023-08-31T13:18:35;2.80;;;1.70;;
16262;SDS011;8239;48.594;8.598;2023-08-31T13:21:02;2.53;;;1.80;;
16262;SDS011;8239;48.594;8.598;2023-08-31T13:23:29;3.58;;;1.73;;
16262;SDS011;8239;48.594;8.598;2023-08-31T13:25:56;4.55;;;2.10;;
16262;SDS011;8239;48.594;8.598;2023-08-31T13:28:24;3.53;;;2.00;;
16262;SDS011;8239;48.594;8.598;2023-08-31T13:30:55;4.15;;;1.90;;
16262;SDS011;8239;48.594;8.598;2023-08-31T13:33:23;5.25;;;1.92;;
16262;SDS011;8239;48.594;8.598;2023-08-31T13:35:51;4.65;;;2.20;;
16262;SDS011;8239;48.594;8.598;2023-08-31T13:38:19;4.38;;;2.10;;
16262;SDS011;8239;48.594;8.598;2023-08-31T13:40:46;5.57;;;2.28;;
16262;SDS011;8239;48.594;8.598;2023-08-31T13:43:13;4.13;;;2.33;;
16262;SDS011;8239;48.594;8.598;2023-08-31T13:45:46;4.15;;;2.00;;
16262;SDS011;8239;48.594;8.598;2023-08-31T13:48:16;3.83;;;1.77;;
16262;SDS011;8239;48.594;8.598;2023-08-31T13:50:49;3.00;;;1.80;;
16262;SDS011;8239;48.594;8.598;2023-08-31T13:56:07;4.90;;;1.85;;
16262;SDS011;8239;48.594;8.598;2023-08-31T13:58:34;3.97;;;1.95;;
16262;SDS011;8239;48.594;8.598;2023-08-31T14:01:01;3.78;;;1.98;;
16262;SDS011;8239;48.594;8.598;2023-08-31T14:03:28;3.25;;;1.98;;
16262;SDS011;8239;48.594;8.598;2023-08-31T14:05:57;2.50;;;1.70;;
16262;SDS011;8239;48.594;8.598;2023-08-31T14:08:24;5.20;;;1.80;;
16262;SDS011;8239;48.594;8.598;2023-08-31T14:10:52;3.75;;;1.75;;
16262;SDS011;8239;48.594;8.598;2023-08-31T14:13:19;4.80;;;2.00;;
16262;SDS011;8239;48.594;8.598;2023-08-31T14:15:49;5.93;;;1.83;;
16262;SDS011;8239;48.594;8.598;2023-08-31T14:18:16;3.22;;;1.80;;
16262;SDS011;8239;48.594;8.598;2023-08-31T14:20:43;3.97;;;1.83;;
16262;SDS011;8239;48.594;8.598;2023-08-31T14:23:11;3.08;;;1.80;;
16262;SDS011;8239;48.594;8.598;2023-08-31T14:25:38;3.20;;;1.80;;
16262;SDS011;8239;48.594;8.598;2023-08-31T14:28:05;3.85;;;1.90;;
16262;SDS011;8239;48.594;8.598;2023-08-31T14:30:32;4.35;;;2.10;;
16262;SDS011;8239;48.594;8.598;2023-08-31T14:33:02;4.68;;;1.95;;
16262;SDS011;8239;48.594;8.598;2023-08-31T14:35:29;2.28;;;1.92;;
16262;SDS011;8239;48.594;8.598;2023-08-31T14:37:56;3.90;;;2.17;;
16262;SDS011;8239;48.594;8.598;2023-08-31T14:40:24;3.58;;;2.10;;
16262;SDS011;8239;48.594;8.598;2023-08-31T14:42:51;6.10;;;2.17;;
16262;SDS011;8239;48.594;8.598;2023-08-31T14:45:18;3.72;;;2.00;;
16262;SDS011;8239;48.594;8.598;2023-08-31T14:47:45;4.63;;;2.10;;
16262;SDS011;8239;48.594;8.598;2023-08-31T14:50:12;5.13;;;2.15;;
16262;SDS011;8239;48.594;8.598;2023-08-31T14:52:39;4.38;;;2.20;;
16262;SDS011;8239;48.594;8.598;2023-08-31T14:55:06;7.13;;;2.30;;
16262;SDS011;8239;48.594;8.598;2023-08-31T14:57:35;5.20;;;2.00;;
16262;SDS011;8239;48.594;8.598;2023-08-31T15:00:05;2.67;;;1.83;;
16262;SDS011;8239;48.594;8.598;2023-08-31T15:02:33;3.95;;;2.05;;
16262;SDS011;8239;48.594;8.598;2023-08-31T15:05:00;3.03;;;2.00;;
16262;SDS011;8239;48.594;8.598;2023-08-31T15:07:28;3.38;;;2.00;;